Time;durP1;ratioP1;P1;durP2;ratioP2;P2;SDS_P1;SDS_P2;PMS_P1;PMS_P2;Temp;Humidity;BMP_temperature;BMP_pressure;BME280_temperature;BME280_humidity;BME280_pressure;Samples;Min_cycle;Max_cycle;Signal;HPM_P1;HPM_P2
2022/09/11 00:00:40;;;;;;;;;;;;;;;22.68;54.95;100617.55;2287804;78;50692;-76
2022/09/11 00:03:42;;;;;;;;;;;;;;;22.68;54.97;100616.20;2235058;76;52573;-76
2022/09/11 00:06:45;;;;;;;;;;;;;;;22.68;54.96;100619.42;2259588;78;53658;-76
2022/09/11 00:09:46;;;;;;;;;;;;;;;22.67;54.96;100614.55;2256382;77;50286;-76
2022/09/11 00:12:48;;;;;;;;;;;;;;;22.68;54.84;100621.59;2250734;78;50605;-76
2022/09/11 00:15:51;;;;;;;;;;;;;;;22.68;54.85;100618.89;2247319;78;50369;-77
2022/09/11 00:18:53;;;;;;;;;;;;;;;22.69;54.88;100625.14;2223962;79;51483;-77
2022/09/11 00:21:56;;;;;;;;;;;;;;;22.68;54.89;100623.47;2248739;79;51618;-76
2022/09/11 00:24:58;;;;;;;;;;;;;;;22.68;54.87;100627.51;2224048;79;50484;-76
2022/09/11 00:28:00;;;;;;;;;;;;;;;22.67;54.89;100626.69;2219058;79;51110;-76
2022/09/11 00:31:04;;;;;;;;;;;;;;;22.66;54.96;100623.70;2249241;77;50687;-77
2022/09/11 00:34:05;;;;;;;;;;;;;;;22.67;54.90;100633.43;2248009;78;50276;-76
2022/09/11 00:37:08;;;;;;;;;;;;;;;22.68;54.83;100628.86;2252035;78;51555;-76
2022/09/11 00:40:10;;;;;;;;;;;;;;;22.67;54.83;100628.03;2232505;75;50168;-76
2022/09/11 00:43:12;;;;;;;;;;;;;;;22.67;54.89;100628.56;2296125;77;50713;-77
2022/09/11 00:46:14;;;;;;;;;;;;;;;22.67;54.90;100629.38;2295095;76;51566;-76
2022/09/11 00:49:17;;;;;;;;;;;;;;;22.66;54.90;100627.73;2301287;77;50364;-76
2022/09/11 00:52:23;;;;;;;;;;;;;;;22.67;54.85;100623.98;2243990;77;50217;-75
2022/09/11 00:55:31;;;;;;;;;;;;;;;22.67;54.81;100625.34;2307791;76;50658;-75
2022/09/11 00:58:32;;;;;;;;;;;;;;;22.65;54.78;100623.36;2307311;77;22131;-75
2022/09/11 01:01:34;;;;;;;;;;;;;;;22.66;54.83;100618.30;2302910;77;51495;-75
2022/09/11 01:04:36;;;;;;;;;;;;;;;22.66;54.84;100624.19;2240915;77;52014;-75
2022/09/11 01:07:38;;;;;;;;;;;;;;;22.65;54.89;100622.02;2254639;77;51567;-75
2022/09/11 01:10:44;;;;;;;;;;;;;;;22.65;54.84;100624.72;2261354;78;51487;-75
2022/09/11 01:13:56;;;;;;;;;;;;;;;22.65;54.83;100619.84;2265585;77;50867;-75
2022/09/11 01:17:09;;;;;;;;;;;;;;;22.65;54.77;100627.41;2196079;78;51950;-76
2022/09/11 01:20:29;;;;;;;;;;;;;;;22.64;54.86;100623.07;2260436;76;50331;-76
2022/09/11 01:23:35;;;;;;;;;;;;;;;22.64;54.81;100629.81;2260836;77;51570;-76
2022/09/11 01:26:37;;;;;;;;;;;;;;;22.65;54.80;100629.28;2260252;78;50827;-75
2022/09/11 01:29:43;;;;;;;;;;;;;;;22.63;54.82;100630.83;2227362;78;52598;-76
2022/09/11 01:32:49;;;;;;;;;;;;;;;22.64;54.85;100638.43;2260164;77;50769;-76
2022/09/11 01:36:05;;;;;;;;;;;;;;;22.64;54.85;100632.51;2255086;77;51382;-76
2022/09/11 01:39:06;;;;;;;;;;;;;;;22.64;54.75;100631.16;2238918;78;51683;-76
2022/09/11 01:42:13;;;;;;;;;;;;;;;22.63;54.78;100637.58;2224580;79;51045;-76
2022/09/11 01:45:13;;;;;;;;;;;;;;;22.63;54.79;100638.92;2246605;78;22432;-76
2022/09/11 01:48:15;;;;;;;;;;;;;;;22.64;54.78;100637.08;2249158;78;50366;-76
2022/09/11 01:51:18;;;;;;;;;;;;;;;22.63;54.77;100628.13;2248596;79;51630;-76
2022/09/11 01:54:21;;;;;;;;;;;;;;;22.63;54.73;100636.23;2223126;78;49611;-76
2022/09/11 01:57:31;;;;;;;;;;;;;;;22.63;54.73;100637.58;2249691;78;50718;-76
2022/09/11 02:00:34;;;;;;;;;;;;;;;22.64;54.72;100636.55;2248970;77;51737;-76
2022/09/11 02:03:55;;;;;;;;;;;;;;;22.62;54.69;100633.23;2248686;78;51570;-76
2022/09/11 02:07:02;;;;;;;;;;;;;;;22.62;54.75;100645.37;2220448;79;49666;-75
2022/09/11 02:10:08;;;;;;;;;;;;;;;22.63;54.73;100649.71;2211276;79;50702;-75
2022/09/11 02:13:28;;;;;;;;;;;;;;;22.61;54.72;100644.55;2211630;80;50252;-76
2022/09/11 02:16:47;;;;;;;;;;;;;;;22.61;54.69;100644.55;2211931;78;22810;-75
2022/09/11 02:19:49;;;;;;;;;;;;;;;22.61;54.76;100639.67;2211645;80;51549;-76
2022/09/11 02:22:51;;;;;;;;;;;;;;;22.60;54.72;100638.00;2211584;80;51577;-77
2022/09/11 02:25:53;;;;;;;;;;;;;;;22.61;54.71;100641.03;2211576;80;50307;-76
2022/09/11 02:28:55;;;;;;;;;;;;;;;22.60;54.76;100644.22;2211500;80;50082;-76
2022/09/11 02:31:56;;;;;;;;;;;;;;;22.60;54.75;100639.34;2211545;79;50074;-76
2022/09/11 02:34:58;;;;;;;;;;;;;;;22.60;54.70;100638.00;2211632;79;51541;-76
2022/09/11 02:38:01;;;;;;;;;;;;;;;22.60;54.67;100645.56;2259284;78;50724;-76
2022/09/11 02:41:12;;;;;;;;;;;;;;;22.60;54.68;100647.44;2259880;76;50659;-76
2022/09/11 02:44:15;;;;;;;;;;;;;;;22.59;54.72;100643.09;2260055;77;22796;-76
2022/09/11 02:47:24;;;;;;;;;;;;;;;22.59;54.70;100646.62;2261586;77;51523;-78
2022/09/11 02:50:28;;;;;;;;;;;;;;;22.60;54.67;100648.79;2260084;78;51607;-75
2022/09/11 02:53:34;;;;;;;;;;;;;;;22.60;54.66;100653.66;2259973;78;51509;-76
2022/09/11 02:56:38;;;;;;;;;;;;;;;22.60;54.63;100659.58;2257408;77;50927;-76
2022/09/11 02:59:41;;;;;;;;;;;;;;;22.60;54.66;100667.67;2260894;78;50271;-76
2022/09/11 03:02:43;;;;;;;;;;;;;;;22.59;54.68;100671.41;2259762;76;50513;-77
2022/09/11 03:05:45;;;;;;;;;;;;;;;22.60;54.61;100672.53;2257798;78;50394;-76
2022/09/11 03:08:46;;;;;;;;;;;;;;;22.60;54.64;100671.71;2257774;77;51807;-76
2022/09/11 03:11:48;;;;;;;;;;;;;;;22.59;54.60;100671.41;2269266;77;50151;-76
2022/09/11 03:14:51;;;;;;;;;;;;;;;22.58;54.63;100670.59;2294584;76;50680;-76
2022/09/11 03:17:52;;;;;;;;;;;;;;;22.59;54.63;100666.02;2294787;77;50399;-76
2022/09/11 03:20:54;;;;;;;;;;;;;;;22.59;54.58;100666.02;2271338;77;49574;-76
2022/09/11 03:23:56;;;;;;;;;;;;;;;22.58;54.61;100662.50;2269817;76;50632;-76
2022/09/11 03:26:57;;;;;;;;;;;;;;;22.59;54.59;100672.23;2294644;77;50304;-76
2022/09/11 03:29:59;;;;;;;;;;;;;;;22.59;54.55;100671.41;2269602;77;50373;-76
2022/09/11 03:33:01;;;;;;;;;;;;;;;22.58;54.57;100676.48;2245303;77;51836;-76
2022/09/11 03:36:02;;;;;;;;;;;;;;;22.58;54.57;100680.03;2271593;76;50180;-76
2022/09/11 03:39:04;;;;;;;;;;;;;;;22.58;54.54;100689.47;2264891;78;50827;-76
2022/09/11 03:42:05;;;;;;;;;;;;;;;22.57;54.57;100688.31;2259925;77;50250;-76
2022/09/11 03:45:07;;;;;;;;;;;;;;;22.58;54.52;100696.70;2260952;78;49557;-75
2022/09/11 03:48:09;;;;;;;;;;;;;;;22.58;54.56;100702.95;2259715;77;50130;-75
2022/09/11 03:51:10;;;;;;;;;;;;;;;22.58;54.55;100702.95;2286723;78;50380;-75
2022/09/11 03:54:14;;;;;;;;;;;;;;;22.58;54.50;100708.84;2259297;76;50669;-76
2022/09/11 03:57:15;;;;;;;;;;;;;;;22.57;54.55;100708.55;2235658;78;50113;-76
2022/09/11 04:00:17;;;;;;;;;;;;;;;22.56;54.77;100719.03;2259351;78;51507;-76
2022/09/11 04:03:19;;;;;;;;;;;;;;;22.56;54.85;100719.86;2286753;77;50689;-77
2022/09/11 04:06:20;;;;;;;;;;;;;;;22.56;55.27;100723.08;2260310;76;51504;-78
2022/09/11 04:09:22;;;;;;;;;;;;;;;22.59;54.92;100721.30;2211380;77;52438;-76
2022/09/11 04:12:24;;;;;;;;;;;;;;;22.59;54.89;100728.05;2269908;77;50075;-76
2022/09/11 04:15:26;;;;;;;;;;;;;;;22.58;55.10;100735.31;2269658;77;51591;-77
2022/09/11 04:18:27;;;;;;;;;;;;;;;22.58;55.37;100737.16;2295049;77;52274;-77
2022/09/11 04:21:29;;;;;;;;;;;;;;;22.60;55.26;100737.78;2271132;77;49471;-77
2022/09/11 04:24:30;;;;;;;;;;;;;;;22.62;55.13;100735.72;2269576;76;50310;-77
2022/09/11 04:27:32;;;;;;;;;;;;;;;22.62;55.26;100738.41;2294695;77;51516;-78
2022/09/11 04:30:37;;;;;;;;;;;;;;;22.62;55.28;100731.67;2294677;77;51391;-77
2022/09/11 04:33:39;;;;;;;;;;;;;;;22.62;55.27;100743.81;2270805;76;51011;-77
2022/09/11 04:36:41;;;;;;;;;;;;;;;22.63;55.35;100736.02;2294861;77;51491;-77
2022/09/11 04:39:43;;;;;;;;;;;;;;;22.63;55.46;100734.67;2280933;77;50339;-77
2022/09/11 04:42:44;;;;;;;;;;;;;;;22.64;55.44;100744.44;2251781;78;50389;-77
2022/09/11 04:45:46;;;;;;;;;;;;;;;22.65;55.45;100748.78;2227587;78;49614;-77
2022/09/11 04:48:49;;;;;;;;;;;;;;;22.65;55.48;100747.95;2252095;77;50818;-77
2022/09/11 04:51:51;;;;;;;;;;;;;;;22.65;55.38;100739.34;2260198;78;51488;-77
2022/09/11 04:54:52;;;;;;;;;;;;;;;22.66;55.48;100749.11;2259851;77;51482;-77
2022/09/11 04:57:54;;;;;;;;;;;;;;;22.65;55.45;100742.56;2226003;78;52714;-77
2022/09/11 05:00:55;;;;;;;;;;;;;;;22.63;55.52;100742.76;2263504;78;51479;-77
2022/09/11 05:03:59;;;;;;;;;;;;;;;22.65;55.54;100744.73;2259940;77;50244;-76
2022/09/11 05:07:01;;;;;;;;;;;;;;;22.66;55.55;100746.91;2260441;78;24997;-77
2022/09/11 05:10:02;;;;;;;;;;;;;;;22.64;55.74;100748.48;2246603;78;49710;-78
2022/09/11 05:13:04;;;;;;;;;;;;;;;22.62;55.66;100745.16;2260877;78;50157;-78
2022/09/11 05:16:07;;;;;;;;;;;;;;;22.60;55.69;100751.27;2249513;76;50781;-78
2022/09/11 05:19:09;;;;;;;;;;;;;;;22.62;55.57;100754.59;2222810;79;50973;-77
2022/09/11 05:22:10;;;;;;;;;;;;;;;22.62;55.51;100749.20;2223590;79;49919;-80
2022/09/11 05:25:12;;;;;;;;;;;;;;;22.61;55.41;100749.73;2223767;79;52242;-79
2022/09/11 05:28:15;;;;;;;;;;;;;;;22.63;55.41;100764.86;2228411;78;50830;-80
2022/09/11 05:31:17;;;;;;;;;;;;;;;22.60;55.46;100760.71;2272625;77;51512;-80
2022/09/11 05:34:19;;;;;;;;;;;;;;;22.59;55.55;100761.76;2261750;77;50749;-80
2022/09/11 05:37:21;;;;;;;;;;;;;;;22.60;55.42;100760.19;2261989;78;51566;-79
2022/09/11 05:40:22;;;;;;;;;;;;;;;22.61;55.42;100775.87;2253469;78;50593;-80
2022/09/11 05:43:25;;;;;;;;;;;;;;;22.61;55.41;100771.30;2232286;78;50755;-80
2022/09/11 05:46:27;;;;;;;;;;;;;;;22.61;55.30;100769.13;2230788;78;49506;-80
2022/09/11 05:49:28;;;;;;;;;;;;;;;22.62;55.26;100793.70;2254798;78;50260;-80
2022/09/11 05:52:30;;;;;;;;;;;;;;;22.61;55.32;100797.45;2260903;78;50442;-78
2022/09/11 05:55:34;;;;;;;;;;;;;;;22.62;55.24;100803.14;2261704;77;51488;-78
2022/09/11 05:58:35;;;;;;;;;;;;;;;22.61;55.30;100805.55;2235211;78;49626;-79
2022/09/11 06:01:37;;;;;;;;;;;;;;;22.59;55.29;100810.30;2252138;77;50432;-78
2022/09/11 06:04:39;;;;;;;;;;;;;;;22.59;55.45;100817.05;2270329;77;50127;-78
2022/09/11 06:07:41;;;;;;;;;;;;;;;22.59;55.46;100821.09;2296961;77;50747;-78
2022/09/11 06:10:48;;;;;;;;;;;;;;;22.59;55.57;100834.05;2267308;77;49651;-78
2022/09/11 06:13:50;;;;;;;;;;;;;;;22.60;55.46;100836.23;2267313;76;50775;-78
2022/09/11 06:16:55;;;;;;;;;;;;;;;22.59;55.31;100839.97;2302839;77;51408;-79
2022/09/11 06:19:55;;;;;;;;;;;;;;;22.57;55.53;100840.69;2266601;77;22355;-78
2022/09/11 06:22:56;;;;;;;;;;;;;;;22.58;55.60;100845.03;2267204;77;50104;-78
2022/09/11 06:26:08;;;;;;;;;;;;;;;22.58;55.54;100847.73;2289151;76;49917;-79
2022/09/11 06:29:13;;;;;;;;;;;;;;;22.56;55.54;100841.21;2238172;78;50109;-78
2022/09/11 06:32:13;;;;;;;;;;;;;;;22.58;55.46;100846.38;2286867;77;22388;-78
2022/09/11 06:35:15;;;;;;;;;;;;;;;22.59;55.61;100854.80;2263832;77;52524;-80
2022/09/11 06:38:16;;;;;;;;;;;;;;;22.58;55.48;100859.38;2263664;77;50417;-80
2022/09/11 06:41:19;;;;;;;;;;;;;;;22.57;55.69;100853.64;2225567;77;50367;-79
2022/09/11 06:44:21;;;;;;;;;;;;;;;22.58;55.45;100866.61;2247943;77;51678;-79
2022/09/11 06:47:22;;;;;;;;;;;;;;;22.57;55.75;100860.39;2211371;78;52557;-79
2022/09/11 06:50:24;;;;;;;;;;;;;;;22.57;55.65;100870.35;2207123;80;51473;-80
2022/09/11 06:53:26;;;;;;;;;;;;;;;22.57;55.57;100878.44;2216396;79;51605;-78
2022/09/11 06:56:30;;;;;;;;;;;;;;;22.58;55.47;100876.91;2238882;78;50700;-78
2022/09/11 06:59:31;;;;;;;;;;;;;;;22.58;55.67;100880.09;2243699;79;22029;-78
2022/09/11 07:02:33;;;;;;;;;;;;;;;22.58;55.70;100870.66;2225239;79;51457;-78
2022/09/11 07:05:35;;;;;;;;;;;;;;;22.59;55.57;100866.94;2222340;78;52339;-78
2022/09/11 07:08:37;;;;;;;;;;;;;;;22.57;55.69;100862.27;2248451;79;50754;-78
2022/09/11 07:11:42;;;;;;;;;;;;;;;22.56;55.75;100864.66;2223016;79;49675;-78
2022/09/11 07:14:42;;;;;;;;;;;;;;;22.58;55.66;100877.39;2247929;78;22575;-78
2022/09/11 07:17:44;;;;;;;;;;;;;;;22.56;55.73;100877.62;2222532;78;52308;-78
2022/09/11 07:20:45;;;;;;;;;;;;;;;22.58;55.66;100877.39;2223617;78;51294;-78
2022/09/11 07:23:48;;;;;;;;;;;;;;;22.56;55.65;100876.27;2222177;78;50113;-78
2022/09/11 07:26:50;;;;;;;;;;;;;;;22.55;55.73;100886.72;2222306;78;50674;-78
2022/09/11 07:29:51;;;;;;;;;;;;;;;22.56;55.65;100877.62;2258823;78;51596;-79
2022/09/11 07:32:54;;;;;;;;;;;;;;;22.56;55.66;100878.14;2228907;78;52421;-78
2022/09/11 07:35:55;;;;;;;;;;;;;;;22.56;55.83;100876.27;2205466;78;49479;-78
2022/09/11 07:38:57;;;;;;;;;;;;;;;22.56;55.84;100870.87;2259799;78;50730;-78
2022/09/11 07:41:59;;;;;;;;;;;;;;;22.56;55.96;100876.80;2260416;78;50403;-78
2022/09/11 07:45:00;;;;;;;;;;;;;;;22.56;55.95;100883.53;2259727;77;50444;-78
2022/09/11 07:48:02;;;;;;;;;;;;;;;22.56;56.06;100883.53;2204645;78;51327;-78
2022/09/11 07:51:04;;;;;;;;;;;;;;;22.58;55.87;100876.05;2259915;78;50363;-77
2022/09/11 07:54:05;;;;;;;;;;;;;;;22.60;56.06;100882.08;2258832;77;51511;-77
2022/09/11 07:57:07;;;;;;;;;;;;;;;22.63;56.21;100874.09;2260138;78;51507;-77
2022/09/11 08:00:09;;;;;;;;;;;;;;;22.67;56.10;100875.36;2239688;79;50953;-77
2022/09/11 08:03:11;;;;;;;;;;;;;;;22.65;56.21;100882.30;2257561;79;50438;-77
2022/09/11 08:06:13;;;;;;;;;;;;;;;22.66;55.26;100885.81;2256490;77;50378;-78
2022/09/11 08:09:15;;;;;;;;;;;;;;;22.59;54.68;100893.91;2258967;78;51577;-77
2022/09/11 08:12:16;;;;;;;;;;;;;;;22.52;54.40;100894.41;2233979;79;50097;-78
2022/09/11 08:15:20;;;;;;;;;;;;;;;22.48;53.76;100903.42;2256519;77;51618;-78
2022/09/11 08:18:21;;;;;;;;;;;;;;;22.48;54.16;100894.48;2252978;78;22334;-78
2022/09/11 08:21:23;;;;;;;;;;;;;;;22.50;54.37;100903.20;2247977;79;50168;-78
2022/09/11 08:24:26;;;;;;;;;;;;;;;22.50;54.31;100905.91;2247621;78;50239;-77
2022/09/11 08:27:28;;;;;;;;;;;;;;;22.53;54.35;100903.66;2223096;79;51049;-77
2022/09/11 08:30:29;;;;;;;;;;;;;;;22.53;54.34;100911.73;2203381;79;50707;-77
2022/09/11 08:33:32;;;;;;;;;;;;;;;22.52;54.51;100915.45;2210449;80;51597;-77
2022/09/11 08:36:33;;;;;;;;;;;;;;;22.52;54.52;100922.20;2211675;79;52357;-77
2022/09/11 08:39:35;;;;;;;;;;;;;;;22.52;54.60;100924.89;2186450;80;50847;-77
2022/09/11 08:42:37;;;;;;;;;;;;;;;22.51;54.60;100920.55;2209817;80;50413;-77
2022/09/11 08:45:39;;;;;;;;;;;;;;;22.51;54.62;100925.11;2211897;79;51538;-77
2022/09/11 08:48:45;;;;;;;;;;;;;;;22.51;54.64;100930.51;2212463;80;50772;-77
2022/09/11 08:51:47;;;;;;;;;;;;;;;22.51;54.59;100929.98;2187527;80;52839;-77
2022/09/11 08:54:49;;;;;;;;;;;;;;;22.50;54.58;100926.95;2211882;79;50682;-78
2022/09/11 08:57:55;;;;;;;;;;;;;;;22.51;54.60;100930.51;2214811;79;50232;-77
2022/09/11 09:01:05;;;;;;;;;;;;;;;22.51;54.60;100935.91;2267976;77;51545;-77
2022/09/11 09:04:08;;;;;;;;;;;;;;;22.56;54.45;100934.25;2256313;78;50614;-77
2022/09/11 09:07:11;;;;;;;;;;;;;;;22.58;54.30;100935.37;2262987;77;52513;-77
2022/09/11 09:10:20;;;;;;;;;;;;;;;22.59;54.46;100941.11;2286201;77;51503;-77
2022/09/11 09:13:26;;;;;;;;;;;;;;;22.59;54.45;100933.84;2266451;77;50401;-76
2022/09/11 09:16:30;;;;;;;;;;;;;;;22.59;54.49;100932.49;2225064;78;51357;-76
2022/09/11 09:19:36;;;;;;;;;;;;;;;22.59;54.45;100936.54;2255556;77;51436;-76
2022/09/11 09:22:39;;;;;;;;;;;;;;;22.60;54.45;100942.76;2247968;78;54185;-76
2022/09/11 09:25:41;;;;;;;;;;;;;;;22.58;54.62;100940.77;2217932;79;51402;-77
2022/09/11 09:28:45;;;;;;;;;;;;;;;22.60;54.66;100947.62;2231746;78;50190;-77
2022/09/11 09:31:47;;;;;;;;;;;;;;;22.59;54.67;100949.20;2237073;78;50691;-77
2022/09/11 09:34:49;;;;;;;;;;;;;;;22.60;54.69;100951.67;2247550;78;50437;-77
2022/09/11 09:37:50;;;;;;;;;;;;;;;22.60;54.68;100948.98;2259650;78;50472;-76
2022/09/11 09:41:10;;;;;;;;;;;;;;;22.61;54.75;100947.14;2188733;79;51773;-77
2022/09/11 09:44:14;;;;;;;;;;;;;;;22.67;54.71;100950.88;2248752;78;51497;-76
2022/09/11 09:47:16;;;;;;;;;;;;;;;22.66;54.86;100955.45;2250571;78;50696;-77
2022/09/11 09:50:21;;;;;;;;;;;;;;;22.64;55.08;100945.37;2262062;77;50695;-77
2022/09/11 09:53:31;;;;;;;;;;;;;;;22.63;55.18;100955.01;2225787;78;51987;-77
2022/09/11 09:56:32;;;;;;;;;;;;;;;22.62;55.28;100950.14;2259468;77;50316;-78
2022/09/11 09:59:41;;;;;;;;;;;;;;;22.61;55.32;100950.66;2267728;78;50255;-75
2022/09/11 10:02:56;;;;;;;;;;;;;;;22.64;55.16;100952.13;2292494;77;51617;-74
2022/09/11 10:05:59;;;;;;;;;;;;;;;22.65;55.50;100960.52;2248568;77;51140;-75
2022/09/11 10:09:00;;;;;;;;;;;;;;;22.65;55.92;100957.81;2297872;77;50667;-75
2022/09/11 10:12:06;;;;;;;;;;;;;;;22.75;55.91;100959.61;2295028;77;50725;-74
2022/09/11 10:15:10;;;;;;;;;;;;;;;22.81;56.15;100964.22;2225981;79;52224;-74
2022/09/11 10:18:25;;;;;;;;;;;;;;;22.77;56.27;100964.30;2222033;79;49667;-74
2022/09/11 10:21:35;;;;;;;;;;;;;;;22.78;56.34;100965.12;2249812;79;50439;-75
2022/09/11 10:24:36;;;;;;;;;;;;;;;22.70;56.53;100967.48;2250674;78;51613;-75
2022/09/11 10:27:58;;;;;;;;;;;;;;;22.75;56.56;100963.66;2248266;79;51472;-76
2022/09/11 10:31:01;;;;;;;;;;;;;;;22.73;56.58;100968.42;2223484;79;49638;-75
2022/09/11 10:34:04;;;;;;;;;;;;;;;22.73;56.54;100966.25;2247196;78;51639;-75
2022/09/11 10:37:13;;;;;;;;;;;;;;;22.73;56.42;100973.81;2248561;78;50488;-74
2022/09/11 10:40:21;;;;;;;;;;;;;;;22.73;56.32;100967.59;2256490;78;50442;-76
2022/09/11 10:43:23;;;;;;;;;;;;;;;22.72;56.32;100968.12;2225437;78;51018;-78
2022/09/11 10:46:31;;;;;;;;;;;;;;;22.71;56.23;100971.86;2247206;78;50307;-76
2022/09/11 10:49:29;;;;;;;;;;;;;;;22.74;56.17;100974.67;2246075;79;23022;-77
2022/09/11 10:52:31;;;;;;;;;;;;;;;22.72;56.06;100976.21;2247046;79;50149;-76
2022/09/11 10:55:40;;;;;;;;;;;;;;;22.75;55.89;100971.75;2198242;79;51200;-76
2022/09/11 10:58:42;;;;;;;;;;;;;;;22.74;56.01;100971.45;2244826;78;51682;-76
2022/09/11 11:01:43;;;;;;;;;;;;;;;22.79;55.90;100978.94;2248615;79;51518;-75
2022/09/11 11:04:45;;;;;;;;;;;;;;;22.81;56.28;100975.01;2240646;78;50450;-75
2022/09/11 11:07:57;;;;;;;;;;;;;;;22.79;56.43;100977.07;2210078;79;49595;-76
2022/09/11 11:11:13;;;;;;;;;;;;;;;22.75;57.13;100979.02;2209058;79;51020;-75
2022/09/11 11:14:12;;;;;;;;;;;;;;;22.74;56.76;100979.55;2231495;78;22346;-75
2022/09/11 11:17:32;;;;;;;;;;;;;;;22.74;56.45;100978.72;2233326;78;51582;-75
2022/09/11 11:20:36;;;;;;;;;;;;;;;22.74;56.78;100985.46;2222280;78;51319;-77
2022/09/11 11:23:46;;;;;;;;;;;;;;;22.70;57.03;100980.97;2246940;78;51536;-74
2022/09/11 11:26:52;;;;;;;;;;;;;;;22.71;57.11;100977.26;2247550;78;52266;-75
2022/09/11 11:29:55;;;;;;;;;;;;;;;22.73;56.46;100988.66;2247212;79;51464;-76
2022/09/11 11:33:05;;;;;;;;;;;;;;;22.74;56.22;100983.59;2221755;79;52504;-75
2022/09/11 11:36:08;;;;;;;;;;;;;;;22.75;56.15;100978.50;2247355;78;51533;-76
2022/09/11 11:39:13;;;;;;;;;;;;;;;22.74;56.34;100977.37;2247207;79;51447;-75
2022/09/11 11:42:25;;;;;;;;;;;;;;;22.74;56.41;100976.84;2247052;79;50437;-76
2022/09/11 11:45:30;;;;;;;;;;;;;;;22.75;56.32;100981.20;2221897;79;51023;-76
2022/09/11 11:48:33;;;;;;;;;;;;;;;22.76;56.25;100971.23;2247397;79;23225;-75
2022/09/11 11:51:36;;;;;;;;;;;;;;;22.77;56.20;100970.21;2246843;79;50771;-79
2022/09/11 11:54:51;;;;;;;;;;;;;;;22.79;56.12;100980.30;2247926;78;51605;-76
2022/09/11 11:58:04;;;;;;;;;;;;;;;22.78;56.05;100971.34;2222087;79;50260;-76
2022/09/11 12:01:06;;;;;;;;;;;;;;;22.78;56.05;100976.73;2248642;79;50455;-75
2022/09/11 12:04:21;;;;;;;;;;;;;;;22.77;56.05;100976.44;2248348;77;51487;-75
2022/09/11 12:07:26;;;;;;;;;;;;;;;22.74;56.05;100979.55;2246749;78;51622;-75
2022/09/11 12:10:36;;;;;;;;;;;;;;;22.74;56.05;100982.77;2223660;79;51383;-77
2022/09/11 12:13:40;;;;;;;;;;;;;;;22.76;55.94;100986.06;2248207;78;51586;-76
2022/09/11 12:16:41;;;;;;;;;;;;;;;22.78;55.86;100982.13;2247898;79;50807;-75
2022/09/11 12:20:02;;;;;;;;;;;;;;;22.81;55.72;100986.29;2248112;79;50446;-77
2022/09/11 12:23:05;;;;;;;;;;;;;;;22.79;55.58;100983.81;2223904;79;52601;-73
2022/09/11 12:26:11;;;;;;;;;;;;;;;22.80;55.54;100984.11;2248894;78;50446;-74
2022/09/11 12:29:14;;;;;;;;;;;;;;;22.79;55.55;100982.47;2249069;79;51536;-75
2022/09/11 12:32:18;;;;;;;;;;;;;;;22.72;55.88;100984.30;2249018;79;51594;-75
2022/09/11 12:35:24;;;;;;;;;;;;;;;22.71;56.68;100978.61;2223608;79;51725;-76
2022/09/11 12:38:27;;;;;;;;;;;;;;;22.72;56.41;100989.70;2251704;79;51486;-76
2022/09/11 12:41:29;;;;;;;;;;;;;;;22.73;56.79;100991.35;2243514;79;50947;-76
2022/09/11 12:44:32;;;;;;;;;;;;;;;22.75;56.88;100985.77;2246355;78;51659;-76
2022/09/11 12:47:37;;;;;;;;;;;;;;;22.76;56.98;100990.11;2214321;79;49648;-77
2022/09/11 12:50:39;;;;;;;;;;;;;;;22.78;57.06;100994.80;2249123;79;51483;-75
2022/09/11 12:53:42;;;;;;;;;;;;;;;22.79;56.86;100997.30;2248787;78;50389;-76
2022/09/11 12:56:48;;;;;;;;;;;;;;;22.77;56.99;100997.19;2249079;79;51566;-76
2022/09/11 12:59:54;;;;;;;;;;;;;;;22.78;57.28;100994.80;2243851;78;49761;-76
2022/09/11 13:02:56;;;;;;;;;;;;;;;22.79;57.69;100990.56;2287361;78;51652;-77
2022/09/11 13:06:02;;;;;;;;;;;;;;;22.78;57.44;100989.40;2287098;76;51265;-78
2022/09/11 13:09:03;;;;;;;;;;;;;;;22.75;57.42;100982.55;2287411;78;51535;-78
2022/09/11 13:12:25;;;;;;;;;;;;;;;22.76;57.61;100986.92;2261137;78;51878;-76
2022/09/11 13:15:35;;;;;;;;;;;;;;;22.76;57.81;100984.72;2287022;76;50796;-77
2022/09/11 13:18:36;;;;;;;;;;;;;;;22.74;58.15;100978.72;2287200;78;50810;-76
2022/09/11 13:21:39;;;;;;;;;;;;;;;22.74;58.31;100978.72;2287290;78;50782;-76
2022/09/11 13:24:41;;;;;;;;;;;;;;;22.69;55.83;100973.92;2260974;78;51030;-76
2022/09/11 13:27:56;;;;;;;;;;;;;;;22.59;55.48;100969.42;2287294;78;51582;-76
2022/09/11 13:31:00;;;;;;;;;;;;;;;22.59;55.73;100965.38;2286444;77;50865;-75
2022/09/11 13:34:03;;;;;;;;;;;;;;;22.63;55.71;100971.19;2286963;76;51511;-76
2022/09/11 13:37:08;;;;;;;;;;;;;;;22.59;56.01;100966.73;2261114;78;51703;-76
2022/09/11 13:40:23;;;;;;;;;;;;;;;22.58;56.10;100969.95;2287514;77;51611;-75
2022/09/11 13:43:27;;;;;;;;;;;;;;;22.57;56.24;100972.84;2287226;77;22410;-75
2022/09/11 13:46:30;;;;;;;;;;;;;;;22.61;56.01;100971.41;2261081;76;51693;-75
2022/09/11 13:49:34;;;;;;;;;;;;;;;22.60;55.60;100983.22;2222917;78;51023;-77
2022/09/11 13:52:35;;;;;;;;;;;;;;;22.60;55.81;100978.65;2247963;79;50117;-77
2022/09/11 13:55:37;;;;;;;;;;;;;;;22.61;54.71;100984.89;2247802;78;50386;-76
2022/09/11 13:58:38;;;;;;;;;;;;;;;22.58;54.84;100989.31;2247883;79;50388;-76
2022/09/11 14:01:41;;;;;;;;;;;;;;;22.57;55.53;100991.72;2225462;79;51800;-77
2022/09/11 14:04:43;;;;;;;;;;;;;;;22.60;55.86;100994.00;2251450;77;50800;-77
2022/09/11 14:07:46;;;;;;;;;;;;;;;22.61;56.53;100991.64;2297840;77;51589;-75
2022/09/11 14:10:48;;;;;;;;;;;;;;;22.61;57.13;100988.42;2296423;77;51587;-79
2022/09/11 14:13:55;;;;;;;;;;;;;;;22.64;56.95;100990.41;2265667;76;50115;-75
2022/09/11 14:16:58;;;;;;;;;;;;;;;22.61;57.20;100982.20;2298051;77;51512;-76
2022/09/11 14:19:59;;;;;;;;;;;;;;;22.72;57.94;100981.61;2257310;77;50303;-77
2022/09/11 14:23:02;;;;;;;;;;;;;;;22.72;58.47;100974.86;2211245;80;51683;-77
2022/09/11 14:26:05;;;;;;;;;;;;;;;22.81;58.97;100975.50;2213258;79;51198;-73
2022/09/11 14:29:26;;;;;;;;;;;;;;;22.81;59.12;100980.41;2223583;79;51541;-74
2022/09/11 14:32:32;;;;;;;;;;;;;;;22.76;59.29;100973.92;2263394;77;51504;-74
2022/09/11 14:35:35;;;;;;;;;;;;;;;22.76;60.08;100981.53;2245778;78;50105;-75
2022/09/11 14:38:37;;;;;;;;;;;;;;;22.74;60.31;100982.24;2221198;78;50136;-75
2022/09/11 14:41:40;;;;;;;;;;;;;;;22.77;60.73;100975.09;2221673;79;51522;-73
2022/09/11 14:44:41;;;;;;;;;;;;;;;22.83;60.89;100975.61;2263371;76;50390;-74
2022/09/11 14:47:43;;;;;;;;;;;;;;;22.85;61.19;100971.89;2294676;77;50733;-74
2022/09/11 14:50:45;;;;;;;;;;;;;;;22.83;61.16;100978.31;2269435;77;50287;-73
2022/09/11 14:53:47;;;;;;;;;;;;;;;22.88;61.53;100975.53;2270926;76;51043;-73
2022/09/11 14:56:48;;;;;;;;;;;;;;;22.89;61.76;100977.18;2294441;77;50299;-75
2022/09/11 14:59:51;;;;;;;;;;;;;;;22.90;61.91;100976.16;2294635;77;50379;-75
2022/09/11 15:02:52;;;;;;;;;;;;;;;22.92;62.07;100974.92;2294990;77;50810;-74
2022/09/11 15:05:56;;;;;;;;;;;;;;;22.94;62.28;100976.05;2269148;77;51543;-74
2022/09/11 15:09:00;;;;;;;;;;;;;;;23.02;62.50;100984.02;2293461;76;51620;-75
2022/09/11 15:12:00;;;;;;;;;;;;;;;23.01;62.27;100978.28;2286649;77;22309;-74
2022/09/11 15:15:02;;;;;;;;;;;;;;;23.00;61.67;100973.94;2213286;78;49670;-74
2022/09/11 15:18:04;;;;;;;;;;;;;;;22.99;61.01;100977.16;2274231;77;51566;-74
2022/09/11 15:21:06;;;;;;;;;;;;;;;22.99;61.39;100979.86;2274580;77;50801;-75
2022/09/11 15:24:08;;;;;;;;;;;;;;;23.04;61.53;100987.31;2273582;78;50798;-73
2022/09/11 15:27:10;;;;;;;;;;;;;;;23.05;61.77;100982.25;2248155;79;49644;-73
2022/09/11 15:30:11;;;;;;;;;;;;;;;23.07;61.99;100983.38;2249066;78;50350;-74
2022/09/11 15:33:13;;;;;;;;;;;;;;;23.04;62.10;100984.62;2221425;79;50391;-73
2022/09/11 15:36:15;;;;;;;;;;;;;;;23.05;62.06;100987.65;2247911;78;50364;-74
2022/09/11 15:39:17;;;;;;;;;;;;;;;23.05;62.03;100993.05;2223077;79;51972;-74
2022/09/11 15:42:19;;;;;;;;;;;;;;;23.00;61.68;100996.35;2239203;77;51495;-73